sensor_id;sensor_type;location;lat;lon;timestamp;temperature;humidity
53294;DHT22;39181;53.440;5.644;2022-12-18T00:00:28;-2.60;99.90
53294;DHT22;39181;53.440;5.644;2022-12-18T00:02:55;-2.30;99.90
53294;DHT22;39181;53.440;5.644;2022-12-18T00:05:21;-2.60;99.90
53294;DHT22;39181;53.440;5.644;2022-12-18T00:07:46;-2.60;99.90
53294;DHT22;39181;53.440;5.644;2022-12-18T00:10:12;-2.60;99.90
53294;DHT22;39181;53.440;5.644;2022-12-18T00:12:37;-2.60;99.90
53294;DHT22;39181;53.440;5.644;2022-12-18T00:15:03;-2.60;99.90
53294;DHT22;39181;53.440;5.644;2022-12-18T00:17:29;-2.60;99.90
53294;DHT22;39181;53.440;5.644;2022-12-18T00:19:55;-2.60;99.90
53294;DHT22;39181;53.440;5.644;2022-12-18T00:22:20;-2.60;99.90
53294;DHT22;39181;53.440;5.644;2022-12-18T00:24:46;-2.60;99.90
53294;DHT22;39181;53.440;5.644;2022-12-18T00:27:11;-2.60;99.90
53294;DHT22;39181;53.440;5.644;2022-12-18T00:29:37;-2.60;99.90
53294;DHT22;39181;53.440;5.644;2022-12-18T00:32:05;-2.60;99.90
53294;DHT22;39181;53.440;5.644;2022-12-18T00:34:30;-2.60;99.90
53294;DHT22;39181;53.440;5.644;2022-12-18T00:36:56;-2.60;99.90
53294;DHT22;39181;53.440;5.644;2022-12-18T00:39:21;-2.60;99.90
53294;DHT22;39181;53.440;5.644;2022-12-18T00:41:47;-2.50;99.90
53294;DHT22;39181;53.440;5.644;2022-12-18T00:44:31;-2.50;99.90
53294;DHT22;39181;53.440;5.644;2022-12-18T00:46:57;-2.50;99.90
53294;DHT22;39181;53.440;5.644;2022-12-18T00:49:22;-2.50;99.90
53294;DHT22;39181;53.440;5.644;2022-12-18T00:51:48;-2.50;99.90
53294;DHT22;39181;53.440;5.644;2022-12-18T00:54:14;-2.30;99.90
53294;DHT22;39181;53.440;5.644;2022-12-18T00:56:39;-2.30;99.90
53294;DHT22;39181;53.440;5.644;2022-12-18T00:59:05;-2.50;99.90
53294;DHT22;39181;53.440;5.644;2022-12-18T01:01:31;-2.50;99.90
53294;DHT22;39181;53.440;5.644;2022-12-18T01:03:58;-2.40;99.90
53294;DHT22;39181;53.440;5.644;2022-12-18T01:06:24;-2.50;99.90
53294;DHT22;39181;53.440;5.644;2022-12-18T01:08:50;-2.50;99.90
53294;DHT22;39181;53.440;5.644;2022-12-18T01:11:17;-2.40;99.90
53294;DHT22;39181;53.440;5.644;2022-12-18T01:13:43;-2.40;99.90
53294;DHT22;39181;53.440;5.644;2022-12-18T01:16:12;-2.40;99.90
53294;DHT22;39181;53.440;5.644;2022-12-18T01:18:38;-2.40;99.90
53294;DHT22;39181;53.440;5.644;2022-12-18T01:21:08;-2.40;99.90
53294;DHT22;39181;53.440;5.644;2022-12-18T01:23:34;-2.40;99.90
53294;DHT22;39181;53.440;5.644;2022-12-18T01:26:12;-2.40;99.90
53294;DHT22;39181;53.440;5.644;2022-12-18T01:28:38;-2.40;99.90
53294;DHT22;39181;53.440;5.644;2022-12-18T01:31:23;-2.50;99.90
53294;DHT22;39181;53.440;5.644;2022-12-18T01:33:50;-2.40;99.90
53294;DHT22;39181;53.440;5.644;2022-12-18T01:36:22;-2.40;99.90
53294;DHT22;39181;53.440;5.644;2022-12-18T01:38:48;-2.40;99.90
53294;DHT22;39181;53.440;5.644;2022-12-18T01:41:16;-2.40;99.90
53294;DHT22;39181;53.440;5.644;2022-12-18T01:43:44;-2.40;99.90
53294;DHT22;39181;53.440;5.644;2022-12-18T01:46:10;-2.40;99.90
53294;DHT22;39181;53.440;5.644;2022-12-18T01:48:36;-2.50;99.90
53294;DHT22;39181;53.440;5.644;2022-12-18T01:51:02;-2.40;99.90
53294;DHT22;39181;53.440;5.644;2022-12-18T01:53:28;-2.40;99.90
53294;DHT22;39181;53.440;5.644;2022-12-18T01:55:56;-2.40;99.90
53294;DHT22;39181;53.440;5.644;2022-12-18T01:58:53;-2.40;99.90
53294;DHT22;39181;53.440;5.644;2022-12-18T02:01:21;-2.40;99.90
53294;DHT22;39181;53.440;5.644;2022-12-18T02:03:47;-2.50;99.90
53294;DHT22;39181;53.440;5.644;2022-12-18T02:06:18;-2.50;99.90
53294;DHT22;39181;53.440;5.644;2022-12-18T02:08:58;-2.50;99.90
53294;DHT22;39181;53.440;5.644;2022-12-18T02:14:34;-2.60;99.90
53294;DHT22;39181;53.440;5.644;2022-12-18T02:16:59;-2.60;99.90
53294;DHT22;39181;53.440;5.644;2022-12-18T02:22:36;-2.60;99.90
53294;DHT22;39181;53.440;5.644;2022-12-18T02:25:13;-2.60;99.90
53294;DHT22;39181;53.440;5.644;2022-12-18T02:27:46;-2.70;99.90
53294;DHT22;39181;53.440;5.644;2022-12-18T02:30:12;-2.70;99.90
53294;DHT22;39181;53.440;5.644;2022-12-18T02:32:40;-2.40;99.90
53294;DHT22;39181;53.440;5.644;2022-12-18T02:35:11;-2.80;99.90
53294;DHT22;39181;53.440;5.644;2022-12-18T02:37:39;-2.80;99.90
53294;DHT22;39181;53.440;5.644;2022-12-18T02:40:06;-2.80;99.90
53294;DHT22;39181;53.440;5.644;2022-12-18T02:42:33;-2.80;99.90
53294;DHT22;39181;53.440;5.644;2022-12-18T02:44:58;-2.90;99.90
53294;DHT22;39181;53.440;5.644;2022-12-18T02:47:31;-2.80;99.90
53294;DHT22;39181;53.440;5.644;2022-12-18T02:55:43;-2.90;99.90
53294;DHT22;39181;53.440;5.644;2022-12-18T02:58:26;-3.00;99.90
53294;DHT22;39181;53.440;5.644;2022-12-18T03:01:02;-2.90;99.90
53294;DHT22;39181;53.440;5.644;2022-12-18T03:03:41;-3.00;99.90
53294;DHT22;39181;53.440;5.644;2022-12-18T03:06:13;-3.10;99.90
53294;DHT22;39181;53.440;5.644;2022-12-18T03:08:44;-3.20;99.90
53294;DHT22;39181;53.440;5.644;2022-12-18T03:11:12;-3.10;99.90
53294;DHT22;39181;53.440;5.644;2022-12-18T03:13:48;-3.20;99.90
53294;DHT22;39181;53.440;5.644;2022-12-18T03:16:19;-3.30;99.90
53294;DHT22;39181;53.440;5.644;2022-12-18T03:18:55;-3.30;99.90
53294;DHT22;39181;53.440;5.644;2022-12-18T03:21:28;-3.30;99.90
53294;DHT22;39181;53.440;5.644;2022-12-18T03:23:55;-3.20;99.90
53294;DHT22;39181;53.440;5.644;2022-12-18T03:26:24;-3.30;99.90
53294;DHT22;39181;53.440;5.644;2022-12-18T03:28:57;-3.30;99.90
53294;DHT22;39181;53.440;5.644;2022-12-18T03:31:26;-3.40;99.90
53294;DHT22;39181;53.440;5.644;2022-12-18T03:33:56;-3.40;99.90
53294;DHT22;39181;53.440;5.644;2022-12-18T03:36:23;-3.40;99.90
53294;DHT22;39181;53.440;5.644;2022-12-18T03:38:49;-3.30;99.90
53294;DHT22;39181;53.440;5.644;2022-12-18T03:41:42;-3.40;99.90
53294;DHT22;39181;53.440;5.644;2022-12-18T03:46:56;-3.50;99.90
53294;DHT22;39181;53.440;5.644;2022-12-18T03:54:28;-3.50;99.90
53294;DHT22;39181;53.440;5.644;2022-12-18T03:56:59;-3.50;99.90
53294;DHT22;39181;53.440;5.644;2022-12-18T03:59:27;-3.40;99.90
53294;DHT22;39181;53.440;5.644;2022-12-18T04:01:55;-3.50;99.90
53294;DHT22;39181;53.440;5.644;2022-12-18T04:04:24;-3.50;99.90
53294;DHT22;39181;53.440;5.644;2022-12-18T04:06:51;-3.50;99.90
53294;DHT22;39181;53.440;5.644;2022-12-18T04:09:18;-3.60;99.90
53294;DHT22;39181;53.440;5.644;2022-12-18T04:11:45;-3.60;99.90
53294;DHT22;39181;53.440;5.644;2022-12-18T04:14:11;-3.70;99.90
53294;DHT22;39181;53.440;5.644;2022-12-18T04:16:37;-3.40;99.90
53294;DHT22;39181;53.440;5.644;2022-12-18T04:19:03;-3.70;99.90
53294;DHT22;39181;53.440;5.644;2022-12-18T04:21:29;-3.70;99.90
53294;DHT22;39181;53.440;5.644;2022-12-18T04:23:54;-3.80;99.90
53294;DHT22;39181;53.440;5.644;2022-12-18T04:26:20;-3.80;99.90
53294;DHT22;39181;53.440;5.644;2022-12-18T04:28:46;-3.90;99.90
53294;DHT22;39181;53.440;5.644;2022-12-18T04:31:12;-3.80;99.90
53294;DHT22;39181;53.440;5.644;2022-12-18T04:33:37;-3.90;99.90
53294;DHT22;39181;53.440;5.644;2022-12-18T04:36:03;-3.90;99.90
53294;DHT22;39181;53.440;5.644;2022-12-18T04:38:29;-4.00;99.90
53294;DHT22;39181;53.440;5.644;2022-12-18T04:40:54;-4.00;99.90
53294;DHT22;39181;53.440;5.644;2022-12-18T04:43:20;-4.00;99.90
53294;DHT22;39181;53.440;5.644;2022-12-18T04:45:46;-3.80;99.90
53294;DHT22;39181;53.440;5.644;2022-12-18T04:48:12;-4.00;99.90
53294;DHT22;39181;53.440;5.644;2022-12-18T04:50:37;-4.10;99.90
53294;DHT22;39181;53.440;5.644;2022-12-18T04:53:03;-3.50;99.90
53294;DHT22;39181;53.440;5.644;2022-12-18T04:55:29;-4.10;99.90
53294;DHT22;39181;53.440;5.644;2022-12-18T04:57:54;-4.10;99.90
53294;DHT22;39181;53.440;5.644;2022-12-18T05:00:20;-4.10;99.90
53294;DHT22;39181;53.440;5.644;2022-12-18T05:02:46;-4.10;99.90
53294;DHT22;39181;53.440;5.644;2022-12-18T05:05:11;-4.10;99.90
53294;DHT22;39181;53.440;5.644;2022-12-18T05:07:37;-4.10;99.90
53294;DHT22;39181;53.440;5.644;2022-12-18T05:10:06;-4.10;99.90
53294;DHT22;39181;53.440;5.644;2022-12-18T05:12:32;-4.10;99.90
53294;DHT22;39181;53.440;5.644;2022-12-18T05:14:57;-4.10;99.90
53294;DHT22;39181;53.440;5.644;2022-12-18T05:17:23;-4.00;99.90
53294;DHT22;39181;53.440;5.644;2022-12-18T05:19:48;-3.80;99.90
53294;DHT22;39181;53.440;5.644;2022-12-18T05:22:14;-4.30;99.90
53294;DHT22;39181;53.440;5.644;2022-12-18T05:24:39;-4.20;99.90
53294;DHT22;39181;53.440;5.644;2022-12-18T05:27:05;-4.30;99.90
53294;DHT22;39181;53.440;5.644;2022-12-18T05:29:31;-4.30;99.90
53294;DHT22;39181;53.440;5.644;2022-12-18T05:31:56;-4.30;99.90
53294;DHT22;39181;53.440;5.644;2022-12-18T05:34:22;-4.30;99.90
53294;DHT22;39181;53.440;5.644;2022-12-18T05:36:47;-4.40;99.90
53294;DHT22;39181;53.440;5.644;2022-12-18T05:39:13;-4.40;99.90
53294;DHT22;39181;53.440;5.644;2022-12-18T05:41:38;-4.40;99.90
53294;DHT22;39181;53.440;5.644;2022-12-18T05:44:04;-4.40;99.90
53294;DHT22;39181;53.440;5.644;2022-12-18T05:46:30;-4.40;99.90
53294;DHT22;39181;53.440;5.644;2022-12-18T05:48:59;-4.40;99.90
53294;DHT22;39181;53.440;5.644;2022-12-18T05:51:25;-4.40;99.90
53294;DHT22;39181;53.440;5.644;2022-12-18T05:53:51;-4.50;99.90
53294;DHT22;39181;53.440;5.644;2022-12-18T05:56:20;-4.50;99.90
53294;DHT22;39181;53.440;5.644;2022-12-18T05:58:46;-4.50;99.90
53294;DHT22;39181;53.440;5.644;2022-12-18T06:01:21;-4.50;99.90
53294;DHT22;39181;53.440;5.644;2022-12-18T06:03:47;-4.50;99.90
53294;DHT22;39181;53.440;5.644;2022-12-18T06:06:17;-4.40;99.90
53294;DHT22;39181;53.440;5.644;2022-12-18T06:08:43;-4.60;99.90
53294;DHT22;39181;53.440;5.644;2022-12-18T06:11:09;-4.60;99.90
53294;DHT22;39181;53.440;5.644;2022-12-18T06:13:35;-4.60;99.90
53294;DHT22;39181;53.440;5.644;2022-12-18T06:16:07;-4.60;99.90
53294;DHT22;39181;53.440;5.644;2022-12-18T06:18:33;-4.60;99.90
53294;DHT22;39181;53.440;5.644;2022-12-18T06:20:59;-4.60;99.90
53294;DHT22;39181;53.440;5.644;2022-12-18T06:23:25;-4.60;99.90
53294;DHT22;39181;53.440;5.644;2022-12-18T06:25:51;-4.60;99.90
53294;DHT22;39181;53.440;5.644;2022-12-18T06:28:17;-4.60;99.90
53294;DHT22;39181;53.440;5.644;2022-12-18T06:30:44;-4.40;99.90
53294;DHT22;39181;53.440;5.644;2022-12-18T06:33:10;-4.50;99.90
53294;DHT22;39181;53.440;5.644;2022-12-18T06:35:35;-4.50;99.90
53294;DHT22;39181;53.440;5.644;2022-12-18T06:38:02;-4.30;99.90
53294;DHT22;39181;53.440;5.644;2022-12-18T06:40:27;-4.50;99.90
53294;DHT22;39181;53.440;5.644;2022-12-18T06:42:53;-4.60;99.90
53294;DHT22;39181;53.440;5.644;2022-12-18T06:45:19;-4.60;99.90
53294;DHT22;39181;53.440;5.644;2022-12-18T06:47:44;-4.60;99.90
53294;DHT22;39181;53.440;5.644;2022-12-18T06:50:10;-4.60;99.90
53294;DHT22;39181;53.440;5.644;2022-12-18T06:52:36;-4.60;99.90
53294;DHT22;39181;53.440;5.644;2022-12-18T06:55:02;-4.60;99.90
53294;DHT22;39181;53.440;5.644;2022-12-18T06:57:28;-4.60;99.90
53294;DHT22;39181;53.440;5.644;2022-12-18T06:59:53;-4.60;99.90
53294;DHT22;39181;53.440;5.644;2022-12-18T07:02:19;-4.60;99.90
53294;DHT22;39181;53.440;5.644;2022-12-18T07:04:44;-4.60;99.90
53294;DHT22;39181;53.440;5.644;2022-12-18T07:07:10;-4.70;99.90
53294;DHT22;39181;53.440;5.644;2022-12-18T07:09:36;-4.70;99.90
53294;DHT22;39181;53.440;5.644;2022-12-18T07:12:01;-4.70;99.90
53294;DHT22;39181;53.440;5.644;2022-12-18T07:14:27;-4.70;99.90
53294;DHT22;39181;53.440;5.644;2022-12-18T07:16:53;-4.70;99.90
53294;DHT22;39181;53.440;5.644;2022-12-18T07:19:18;-4.70;99.90
53294;DHT22;39181;53.440;5.644;2022-12-18T07:21:44;-4.70;99.90
53294;DHT22;39181;53.440;5.644;2022-12-18T07:24:09;-4.70;99.90
53294;DHT22;39181;53.440;5.644;2022-12-18T07:26:35;-4.70;99.90
53294;DHT22;39181;53.440;5.644;2022-12-18T07:29:00;-4.70;99.90
53294;DHT22;39181;53.440;5.644;2022-12-18T07:31:27;-4.70;99.90
53294;DHT22;39181;53.440;5.644;2022-12-18T07:33:52;-4.80;99.90
53294;DHT22;39181;53.440;5.644;2022-12-18T07:36:19;-4.70;99.90
53294;DHT22;39181;53.440;5.644;2022-12-18T07:38:47;-4.80;99.90
53294;DHT22;39181;53.440;5.644;2022-12-18T07:41:14;-4.80;99.90
53294;DHT22;39181;53.440;5.644;2022-12-18T07:43:41;-4.80;99.90
53294;DHT22;39181;53.440;5.644;2022-12-18T07:46:08;-4.80;99.90
53294;DHT22;39181;53.440;5.644;2022-12-18T07:48:34;-4.70;99.90
53294;DHT22;39181;53.440;5.644;2022-12-18T07:51:02;-4.80;99.90
53294;DHT22;39181;53.440;5.644;2022-12-18T07:53:28;-4.80;99.90
53294;DHT22;39181;53.440;5.644;2022-12-18T07:55:58;-4.80;99.90
53294;DHT22;39181;53.440;5.644;2022-12-18T07:58:24;-4.80;99.90
53294;DHT22;39181;53.440;5.644;2022-12-18T08:00:50;-4.80;99.90
53294;DHT22;39181;53.440;5.644;2022-12-18T08:03:15;-4.80;99.90
53294;DHT22;39181;53.440;5.644;2022-12-18T08:05:41;-4.80;99.90
53294;DHT22;39181;53.440;5.644;2022-12-18T08:08:06;-4.80;99.90
53294;DHT22;39181;53.440;5.644;2022-12-18T08:10:32;-4.80;99.90
53294;DHT22;39181;53.440;5.644;2022-12-18T08:12:57;-4.70;99.90
53294;DHT22;39181;53.440;5.644;2022-12-18T08:15:23;-4.80;99.90
53294;DHT22;39181;53.440;5.644;2022-12-18T08:17:49;-4.80;99.90
53294;DHT22;39181;53.440;5.644;2022-12-18T08:20:14;-4.70;99.90
53294;DHT22;39181;53.440;5.644;2022-12-18T08:22:44;-4.70;99.90
53294;DHT22;39181;53.440;5.644;2022-12-18T08:25:10;-4.70;99.90
53294;DHT22;39181;53.440;5.644;2022-12-18T08:27:36;-4.70;99.90
53294;DHT22;39181;53.440;5.644;2022-12-18T08:30:03;-4.70;99.90
53294;DHT22;39181;53.440;5.644;2022-12-18T08:32:28;-4.70;99.90
53294;DHT22;39181;53.440;5.644;2022-12-18T08:34:54;-4.70;99.90
53294;DHT22;39181;53.440;5.644;2022-12-18T08:37:20;-4.70;99.90
53294;DHT22;39181;53.440;5.644;2022-12-18T08:39:45;-4.70;99.90
53294;DHT22;39181;53.440;5.644;2022-12-18T08:42:11;-4.70;99.90
53294;DHT22;39181;53.440;5.644;2022-12-18T08:44:55;-4.70;99.90
53294;DHT22;39181;53.440;5.644;2022-12-18T08:47:20;-4.70;99.90
53294;DHT22;39181;53.440;5.644;2022-12-18T08:49:46;-4.60;99.90
53294;DHT22;39181;53.440;5.644;2022-12-18T08:52:14;-4.60;99.90
53294;DHT22;39181;53.440;5.644;2022-12-18T08:54:40;-4.60;99.90
53294;DHT22;39181;53.440;5.644;2022-12-18T08:57:05;-4.50;99.90
53294;DHT22;39181;53.440;5.644;2022-12-18T08:59:32;-4.50;99.90
53294;DHT22;39181;53.440;5.644;2022-12-18T09:01:57;-4.50;99.90
53294;DHT22;39181;53.440;5.644;2022-12-18T09:04:23;-4.40;99.90
53294;DHT22;39181;53.440;5.644;2022-12-18T09:06:48;-4.40;99.90
53294;DHT22;39181;53.440;5.644;2022-12-18T09:09:14;-4.40;99.90
53294;DHT22;39181;53.440;5.644;2022-12-18T09:11:39;-4.00;99.90
53294;DHT22;39181;53.440;5.644;2022-12-18T09:14:05;-4.30;99.90
53294;DHT22;39181;53.440;5.644;2022-12-18T09:16:31;-4.20;99.90
53294;DHT22;39181;53.440;5.644;2022-12-18T09:18:58;-4.20;99.90
53294;DHT22;39181;53.440;5.644;2022-12-18T09:21:27;-4.20;99.90
53294;DHT22;39181;53.440;5.644;2022-12-18T09:23:54;-3.80;99.90
53294;DHT22;39181;53.440;5.644;2022-12-18T09:26:21;-4.10;99.90
53294;DHT22;39181;53.440;5.644;2022-12-18T09:28:47;-4.00;99.90
53294;DHT22;39181;53.440;5.644;2022-12-18T09:31:13;-4.00;99.90
53294;DHT22;39181;53.440;5.644;2022-12-18T09:33:41;-3.90;99.90
53294;DHT22;39181;53.440;5.644;2022-12-18T09:36:08;-3.90;99.90
53294;DHT22;39181;53.440;5.644;2022-12-18T09:38:35;-3.90;99.90
53294;DHT22;39181;53.440;5.644;2022-12-18T09:41:05;-3.80;99.90
53294;DHT22;39181;53.440;5.644;2022-12-18T09:43:44;-3.80;99.90
53294;DHT22;39181;53.440;5.644;2022-12-18T09:46:17;-3.80;99.90
53294;DHT22;39181;53.440;5.644;2022-12-18T09:48:47;-3.70;99.90
53294;DHT22;39181;53.440;5.644;2022-12-18T09:51:15;-3.70;99.90
53294;DHT22;39181;53.440;5.644;2022-12-18T09:53:53;-3.60;99.90
53294;DHT22;39181;53.440;5.644;2022-12-18T09:56:22;-3.60;99.90
53294;DHT22;39181;53.440;5.644;2022-12-18T09:58:59;-3.30;99.90
53294;DHT22;39181;53.440;5.644;2022-12-18T10:01:26;-3.50;99.90
53294;DHT22;39181;53.440;5.644;2022-12-18T10:03:53;-3.40;99.90
53294;DHT22;39181;53.440;5.644;2022-12-18T10:09:34;-3.20;99.90
53294;DHT22;39181;53.440;5.644;2022-12-18T10:17:18;-3.20;99.90
53294;DHT22;39181;53.440;5.644;2022-12-18T10:19:59;-3.10;99.90
53294;DHT22;39181;53.440;5.644;2022-12-18T10:22:57;-3.10;99.90
53294;DHT22;39181;53.440;5.644;2022-12-18T10:28:22;-2.90;99.90
53294;DHT22;39181;53.440;5.644;2022-12-18T10:30:48;-2.90;99.90
53294;DHT22;39181;53.440;5.644;2022-12-18T10:33:24;-2.90;99.90
53294;DHT22;39181;53.440;5.644;2022-12-18T10:35:52;-2.80;99.90
53294;DHT22;39181;53.440;5.644;2022-12-18T10:40:52;-2.60;99.90
53294;DHT22;39181;53.440;5.644;2022-12-18T10:43:44;-2.50;99.90
53294;DHT22;39181;53.440;5.644;2022-12-18T10:51:42;-2.40;99.90
53294;DHT22;39181;53.440;5.644;2022-12-18T10:54:20;-2.30;99.90
53294;DHT22;39181;53.440;5.644;2022-12-18T10:56:47;-2.30;99.90
53294;DHT22;39181;53.440;5.644;2022-12-18T10:59:17;-2.20;99.90
53294;DHT22;39181;53.440;5.644;2022-12-18T11:01:56;-2.10;99.90
53294;DHT22;39181;53.440;5.644;2022-12-18T11:04:30;-2.10;99.90
53294;DHT22;39181;53.440;5.644;2022-12-18T11:07:07;-2.10;99.90
53294;DHT22;39181;53.440;5.644;2022-12-18T11:09:35;-2.00;99.90
53294;DHT22;39181;53.440;5.644;2022-12-18T11:12:14;-2.00;99.90
53294;DHT22;39181;53.440;5.644;2022-12-18T11:17:29;-1.90;99.90
53294;DHT22;39181;53.440;5.644;2022-12-18T11:20:01;-1.90;99.90
53294;DHT22;39181;53.440;5.644;2022-12-18T11:22:30;-1.80;99.90
53294;DHT22;39181;53.440;5.644;2022-12-18T11:25:34;-1.80;99.90
53294;DHT22;39181;53.440;5.644;2022-12-18T11:27:55;-1.80;99.90
53294;DHT22;39181;53.440;5.644;2022-12-18T11:30:30;-1.70;99.90
53294;DHT22;39181;53.440;5.644;2022-12-18T11:33:20;-1.70;99.90
53294;DHT22;39181;53.440;5.644;2022-12-18T11:35:56;-1.70;99.90
53294;DHT22;39181;53.440;5.644;2022-12-18T11:38:35;-1.70;99.90
53294;DHT22;39181;53.440;5.644;2022-12-18T11:41:11;-1.60;99.90
53294;DHT22;39181;53.440;5.644;2022-12-18T11:43:53;-1.60;99.90
53294;DHT22;39181;53.440;5.644;2022-12-18T11:46:30;-1.60;99.90
53294;DHT22;39181;53.440;5.644;2022-12-18T11:49:09;-1.50;99.90
53294;DHT22;39181;53.440;5.644;2022-12-18T11:51:43;-1.40;99.90
53294;DHT22;39181;53.440;5.644;2022-12-18T11:54:13;-1.50;99.90
53294;DHT22;39181;53.440;5.644;2022-12-18T11:56:53;-1.40;99.90
53294;DHT22;39181;53.440;5.644;2022-12-18T11:59:56;-1.40;99.90
53294;DHT22;39181;53.440;5.644;2022-12-18T12:05:48;-1.30;99.90
53294;DHT22;39181;53.440;5.644;2022-12-18T12:08:46;-1.20;99.90
53294;DHT22;39181;53.440;5.644;2022-12-18T12:11:46;-1.30;99.90
53294;DHT22;39181;53.440;5.644;2022-12-18T12:14:24;-1.20;99.90
53294;DHT22;39181;53.440;5.644;2022-12-18T12:17:11;-1.30;99.90
53294;DHT22;39181;53.440;5.644;2022-12-18T12:20:06;-1.30;99.90
53294;DHT22;39181;53.440;5.644;2022-12-18T12:25:37;-1.20;99.90
53294;DHT22;39181;53.440;5.644;2022-12-18T12:33:22;-1.30;99.90
53294;DHT22;39181;53.440;5.644;2022-12-18T12:35:52;-1.30;99.90
53294;DHT22;39181;53.440;5.644;2022-12-18T12:40:58;-1.20;99.90
53294;DHT22;39181;53.440;5.644;2022-12-18T12:43:31;-1.20;99.90
53294;DHT22;39181;53.440;5.644;2022-12-18T12:46:12;-1.30;99.90
53294;DHT22;39181;53.440;5.644;2022-12-18T12:48:51;-1.30;99.90
53294;DHT22;39181;53.440;5.644;2022-12-18T12:51:25;-1.30;99.90
53294;DHT22;39181;53.440;5.644;2022-12-18T12:53:52;-1.30;99.90
53294;DHT22;39181;53.440;5.644;2022-12-18T12:56:20;-1.30;99.90
53294;DHT22;39181;53.440;5.644;2022-12-18T12:58:55;-1.20;99.90
53294;DHT22;39181;53.440;5.644;2022-12-18T13:01:53;-1.20;99.90
53294;DHT22;39181;53.440;5.644;2022-12-18T13:07:12;-1.10;99.90
53294;DHT22;39181;53.440;5.644;2022-12-18T13:18:23;-1.10;99.90
53294;DHT22;39181;53.440;5.644;2022-12-18T13:31:13;-1.00;99.90
53294;DHT22;39181;53.440;5.644;2022-12-18T13:33:44;-1.00;99.90
53294;DHT22;39181;53.440;5.644;2022-12-18T13:39:50;-1.00;99.90
53294;DHT22;39181;53.440;5.644;2022-12-18T13:44:35;-1.10;99.90
53294;DHT22;39181;53.440;5.644;2022-12-18T13:47:03;-1.20;99.90
53294;DHT22;39181;53.440;5.644;2022-12-18T13:52:01;-1.10;99.90
53294;DHT22;39181;53.440;5.644;2022-12-18T13:57:01;-1.00;99.90
53294;DHT22;39181;53.440;5.644;2022-12-18T13:59:35;-1.10;99.90
53294;DHT22;39181;53.440;5.644;2022-12-18T14:02:27;-1.10;99.90
53294;DHT22;39181;53.440;5.644;2022-12-18T14:04:53;-1.20;99.90
53294;DHT22;39181;53.440;5.644;2022-12-18T14:07:22;-1.20;99.90
53294;DHT22;39181;53.440;5.644;2022-12-18T14:09:52;-1.20;99.90
53294;DHT22;39181;53.440;5.644;2022-12-18T14:18:09;-1.20;99.90
53294;DHT22;39181;53.440;5.644;2022-12-18T14:20:43;-1.30;99.90
53294;DHT22;39181;53.440;5.644;2022-12-18T14:23:32;-1.30;99.90
53294;DHT22;39181;53.440;5.644;2022-12-18T14:25:59;-1.30;99.90
53294;DHT22;39181;53.440;5.644;2022-12-18T14:28:25;-1.30;99.90
53294;DHT22;39181;53.440;5.644;2022-12-18T14:30:52;-1.30;99.90
53294;DHT22;39181;53.440;5.644;2022-12-18T14:33:20;-1.20;99.90
53294;DHT22;39181;53.440;5.644;2022-12-18T14:35:55;-1.30;99.90
53294;DHT22;39181;53.440;5.644;2022-12-18T14:38:30;-1.40;99.90
53294;DHT22;39181;53.440;5.644;2022-12-18T14:41:17;-1.40;99.90
53294;DHT22;39181;53.440;5.644;2022-12-18T14:43:45;-1.40;99.90
53294;DHT22;39181;53.440;5.644;2022-12-18T14:48:52;-1.40;99.90
53294;DHT22;39181;53.440;5.644;2022-12-18T14:51:23;-1.40;99.90
53294;DHT22;39181;53.440;5.644;2022-12-18T14:53:54;-1.50;99.90
53294;DHT22;39181;53.440;5.644;2022-12-18T14:56:23;-1.50;99.90
53294;DHT22;39181;53.440;5.644;2022-12-18T14:59:26;-1.50;99.90
53294;DHT22;39181;53.440;5.644;2022-12-18T15:04:26;-1.50;99.90
53294;DHT22;39181;53.440;5.644;2022-12-18T15:09:37;-1.50;99.90
53294;DHT22;39181;53.440;5.644;2022-12-18T15:12:03;-1.50;99.90
53294;DHT22;39181;53.440;5.644;2022-12-18T15:14:38;-1.50;99.90
53294;DHT22;39181;53.440;5.644;2022-12-18T15:17:14;-1.50;99.90
53294;DHT22;39181;53.440;5.644;2022-12-18T15:19:41;-1.50;99.90
53294;DHT22;39181;53.440;5.644;2022-12-18T15:22:29;-1.50;99.90
53294;DHT22;39181;53.440;5.644;2022-12-18T15:24:56;-1.50;99.90
53294;DHT22;39181;53.440;5.644;2022-12-18T15:27:33;-1.40;99.90
53294;DHT22;39181;53.440;5.644;2022-12-18T15:32:36;-1.40;99.90
53294;DHT22;39181;53.440;5.644;2022-12-18T15:35:23;-1.50;99.90
53294;DHT22;39181;53.440;5.644;2022-12-18T15:37:51;-1.50;99.90
53294;DHT22;39181;53.440;5.644;2022-12-18T15:40:22;-1.50;99.90
53294;DHT22;39181;53.440;5.644;2022-12-18T15:42:51;-1.50;99.90
53294;DHT22;39181;53.440;5.644;2022-12-18T15:45:36;-1.50;99.90
53294;DHT22;39181;53.440;5.644;2022-12-18T15:48:02;-1.50;99.90
53294;DHT22;39181;53.440;5.644;2022-12-18T15:50:28;-1.50;99.90
53294;DHT22;39181;53.440;5.644;2022-12-18T15:52:54;-1.40;99.90
53294;DHT22;39181;53.440;5.644;2022-12-18T15:55:22;-1.50;99.90
53294;DHT22;39181;53.440;5.644;2022-12-18T15:58:08;-1.40;99.90
53294;DHT22;39181;53.440;5.644;2022-12-18T16:00:36;-1.40;99.90
53294;DHT22;39181;53.440;5.644;2022-12-18T16:03:03;-1.40;99.90
53294;DHT22;39181;53.440;5.644;2022-12-18T16:05:29;-1.40;99.90
53294;DHT22;39181;53.440;5.644;2022-12-18T16:07:55;-1.40;99.90
53294;DHT22;39181;53.440;5.644;2022-12-18T16:10:21;-1.40;99.90
53294;DHT22;39181;53.440;5.644;2022-12-18T16:12:47;-1.20;99.90
53294;DHT22;39181;53.440;5.644;2022-12-18T16:15:14;-1.40;99.90
53294;DHT22;39181;53.440;5.644;2022-12-18T16:17:42;-1.20;99.90
53294;DHT22;39181;53.440;5.644;2022-12-18T16:20:15;-1.10;99.90
53294;DHT22;39181;53.440;5.644;2022-12-18T16:22:42;-1.40;99.90
53294;DHT22;39181;53.440;5.644;2022-12-18T16:25:27;-1.40;99.90
53294;DHT22;39181;53.440;5.644;2022-12-18T16:27:54;-1.30;99.90
53294;DHT22;39181;53.440;5.644;2022-12-18T16:30:30;-1.40;99.90
53294;DHT22;39181;53.440;5.644;2022-12-18T16:32:59;-1.40;99.90
53294;DHT22;39181;53.440;5.644;2022-12-18T16:35:26;-1.30;99.90
53294;DHT22;39181;53.440;5.644;2022-12-18T16:37:52;-1.40;99.90
53294;DHT22;39181;53.440;5.644;2022-12-18T16:40:18;-1.30;99.90
53294;DHT22;39181;53.440;5.644;2022-12-18T16:42:45;-1.30;99.90
53294;DHT22;39181;53.440;5.644;2022-12-18T16:45:13;-1.30;99.90
53294;DHT22;39181;53.440;5.644;2022-12-18T16:47:39;-1.20;99.90
53294;DHT22;39181;53.440;5.644;2022-12-18T16:50:06;-1.20;99.90
53294;DHT22;39181;53.440;5.644;2022-12-18T16:52:32;-1.20;99.90
53294;DHT22;39181;53.440;5.644;2022-12-18T16:54:58;-1.20;99.90
53294;DHT22;39181;53.440;5.644;2022-12-18T16:57:23;-1.20;99.90
53294;DHT22;39181;53.440;5.644;2022-12-18T16:59:49;-1.20;99.90
53294;DHT22;39181;53.440;5.644;2022-12-18T17:02:20;-1.20;99.90
53294;DHT22;39181;53.440;5.644;2022-12-18T17:04:46;-1.10;99.90
53294;DHT22;39181;53.440;5.644;2022-12-18T17:07:13;-1.10;99.90
53294;DHT22;39181;53.440;5.644;2022-12-18T17:09:38;-1.10;99.90
53294;DHT22;39181;53.440;5.644;2022-12-18T17:12:05;-0.70;99.90
53294;DHT22;39181;53.440;5.644;2022-12-18T17:14:31;-1.10;99.90
53294;DHT22;39181;53.440;5.644;2022-12-18T17:16:57;-1.10;99.90
53294;DHT22;39181;53.440;5.644;2022-12-18T17:19:25;-1.10;99.90
53294;DHT22;39181;53.440;5.644;2022-12-18T17:21:51;-1.10;99.90
53294;DHT22;39181;53.440;5.644;2022-12-18T17:24:17;-1.10;99.90
53294;DHT22;39181;53.440;5.644;2022-12-18T17:26:43;-1.10;99.90
53294;DHT22;39181;53.440;5.644;2022-12-18T17:29:14;-1.10;99.90